Time;durP1;ratioP1;P1;durP2;ratioP2;P2;SDS_P1;SDS_P2;PMS_P1;PMS_P2;Temp;Humidity;BMP_temperature;BMP_pressure;BME280_temperature;BME280_humidity;BME280_pressure;Samples;Min_cycle;Max_cycle;Signal;HPM_P1;HPM_P2
2023/08/06 00:01:43;;;;;;;;;;;19.00;70.70;;;;;;4993859;28;20371;-71
2023/08/06 00:04:08;;;;;;;;;;;19.00;70.50;;;;;;4992968;28;20270;-70
2023/08/06 00:06:34;;;;;;;;;;;19.00;70.50;;;;;;4993326;28;20349;-70
2023/08/06 00:08:59;;;;;;;;;;;18.90;70.40;;;;;;4992903;28;20270;-70
2023/08/06 00:11:25;;;;;;;;;;;18.90;70.60;;;;;;4975466;28;19920;-70
2023/08/06 00:13:50;;;;;;;;;;;18.90;70.70;;;;;;4993284;28;19922;-70
2023/08/06 00:16:16;;;;;;;;;;;18.90;70.80;;;;;;4992970;28;20261;-70
2023/08/06 00:18:41;;;;;;;;;;;18.90;70.80;;;;;;4992756;28;20289;-70
2023/08/06 00:21:06;;;;;;;;;;;18.90;70.90;;;;;;4992992;28;20257;-71
2023/08/06 00:23:32;;;;;;;;;;;18.90;70.80;;;;;;4992505;28;19918;-70
2023/08/06 00:25:57;;;;;;;;;;;18.90;70.80;;;;;;4992617;28;19909;-71
2023/08/06 00:28:23;;;;;;;;;;;18.90;71.00;;;;;;4993030;28;19918;-71
2023/08/06 00:30:55;;;;;;;;;;;19.00;71.10;;;;;;4975489;28;20404;-70
2023/08/06 00:33:23;;;;;;;;;;;19.00;71.10;;;;;;4992747;28;19952;-70
2023/08/06 00:35:49;;;;;;;;;;;19.00;71.10;;;;;;4992973;28;19910;-70
2023/08/06 00:38:14;;;;;;;;;;;19.00;71.10;;;;;;4992432;28;20427;-70
2023/08/06 00:40:40;;;;;;;;;;;19.10;71.20;;;;;;4992719;28;19917;-69
2023/08/06 00:43:05;;;;;;;;;;;19.10;71.30;;;;;;4975430;28;19925;-69
2023/08/06 00:45:33;;;;;;;;;;;19.10;71.20;;;;;;4992413;28;19965;-70
2023/08/06 00:47:59;;;;;;;;;;;19.20;71.20;;;;;;4992180;28;19941;-69
2023/08/06 00:50:25;;;;;;;;;;;19.10;71.20;;;;;;4992510;28;19918;-70
2023/08/06 00:52:51;;;;;;;;;;;19.10;71.20;;;;;;4992366;28;19917;-70
2023/08/06 00:55:16;;;;;;;;;;;19.10;71.30;;;;;;4992259;28;20313;-70
2023/08/06 00:57:42;;;;;;;;;;;19.10;71.30;;;;;;4992347;28;19922;-70
2023/08/06 01:00:07;;;;;;;;;;;19.10;71.30;;;;;;4992145;28;19914;-71
2023/08/06 01:02:33;;;;;;;;;;;19.10;71.30;;;;;;4992445;28;20317;-70
2023/08/06 01:04:58;;;;;;;;;;;19.20;71.20;;;;;;4992546;28;19914;-71
2023/08/06 01:07:30;;;;;;;;;;;19.20;71.30;;;;;;4992477;28;19928;-70
2023/08/06 01:10:01;;;;;;;;;;;19.10;71.30;;;;;;4992594;28;19968;-71
2023/08/06 01:12:47;;;;;;;;;;;19.20;71.30;;;;;;4974732;28;19940;-70
2023/08/06 01:15:15;;;;;;;;;;;19.20;71.40;;;;;;4992043;28;20350;-70
2023/08/06 01:17:41;;;;;;;;;;;19.20;71.50;;;;;;4992098;28;19969;-70
2023/08/06 01:20:06;;;;;;;;;;;19.20;71.20;;;;;;4992142;28;19914;-70
2023/08/06 01:22:32;;;;;;;;;;;19.20;71.40;;;;;;4992258;28;19964;-70
2023/08/06 01:24:57;;;;;;;;;;;19.20;71.30;;;;;;4991784;28;20309;-70
2023/08/06 01:27:28;;;;;;;;;;;19.30;71.30;;;;;;4992033;28;20085;-71
2023/08/06 01:29:58;;;;;;;;;;;19.30;71.20;;;;;;4991939;28;20005;-70
2023/08/06 01:32:24;;;;;;;;;;;19.30;71.20;;;;;;4991896;28;19941;-71
2023/08/06 01:34:50;;;;;;;;;;;19.30;71.30;;;;;;4991845;28;20330;-70
2023/08/06 01:37:16;;;;;;;;;;;19.30;71.30;;;;;;4991794;28;19914;-70
2023/08/06 01:39:44;;;;;;;;;;;19.30;71.30;;;;;;4991822;28;19910;-70
2023/08/06 01:42:10;;;;;;;;;;;19.30;71.20;;;;;;4974380;28;19914;-71
2023/08/06 01:44:35;;;;;;;;;;;19.30;71.20;;;;;;4991850;28;19910;-70
2023/08/06 01:47:01;;;;;;;;;;;19.30;71.20;;;;;;4991903;28;19914;-70
2023/08/06 01:49:26;;;;;;;;;;;19.30;71.10;;;;;;4991418;28;20366;-71
2023/08/06 01:51:51;;;;;;;;;;;19.30;71.10;;;;;;4992235;28;19914;-70
2023/08/06 01:54:17;;;;;;;;;;;19.30;71.10;;;;;;4991539;28;19917;-71
2023/08/06 01:56:42;;;;;;;;;;;19.40;71.20;;;;;;4992119;28;20246;-70
2023/08/06 01:59:08;;;;;;;;;;;19.30;71.20;;;;;;4991999;28;19914;-70
2023/08/06 02:01:33;;;;;;;;;;;19.30;71.20;;;;;;4991541;28;19953;-70
2023/08/06 02:03:59;;;;;;;;;;;19.30;71.20;;;;;;4991629;28;19913;-70
2023/08/06 02:06:24;;;;;;;;;;;19.30;71.20;;;;;;4991991;28;19914;-70
2023/08/06 02:08:50;;;;;;;;;;;19.40;71.20;;;;;;4991636;28;20412;-73
2023/08/06 02:11:15;;;;;;;;;;;19.40;71.20;;;;;;4992768;28;20328;-72
2023/08/06 02:13:40;;;;;;;;;;;19.40;71.10;;;;;;4995360;28;19921;-73
2023/08/06 02:16:09;;;;;;;;;;;19.40;71.10;;;;;;4995351;28;19917;-73
2023/08/06 02:18:34;;;;;;;;;;;19.30;71.10;;;;;;4995109;28;20392;-73
2023/08/06 02:21:00;;;;;;;;;;;19.30;71.00;;;;;;4995234;28;20007;-73
2023/08/06 02:23:26;;;;;;;;;;;19.30;70.70;;;;;;4994912;28;20361;-73
2023/08/06 02:26:01;;;;;;;;;;;19.20;70.40;;;;;;4977406;28;19929;-73
2023/08/06 02:28:26;;;;;;;;;;;19.10;70.10;;;;;;4994878;28;19914;-73
2023/08/06 02:30:52;;;;;;;;;;;19.10;69.80;;;;;;4994932;28;19924;-73
2023/08/06 02:33:17;;;;;;;;;;;18.90;69.60;;;;;;4994947;28;20312;-73
2023/08/06 02:35:43;;;;;;;;;;;18.80;69.60;;;;;;4995299;28;19914;-73
2023/08/06 02:38:08;;;;;;;;;;;18.80;69.40;;;;;;4994655;28;20429;-74
2023/08/06 02:40:34;;;;;;;;;;;18.70;69.30;;;;;;4993778;28;20357;-73
2023/08/06 02:42:59;;;;;;;;;;;18.60;69.30;;;;;;4991451;28;19918;-73
2023/08/06 02:45:25;;;;;;;;;;;18.50;69.30;;;;;;4976683;28;19914;-73
2023/08/06 02:47:50;;;;;;;;;;;18.40;69.10;;;;;;4991553;28;19933;-73
2023/08/06 02:50:16;;;;;;;;;;;18.30;69.00;;;;;;4991451;28;19918;-73
2023/08/06 02:52:41;;;;;;;;;;;18.30;68.90;;;;;;4979013;28;20436;-73
2023/08/06 02:55:07;;;;;;;;;;;18.20;68.50;;;;;;4993761;28;19913;-73
2023/08/06 02:57:32;;;;;;;;;;;18.10;68.40;;;;;;4976863;28;19953;-73
2023/08/06 02:59:58;;;;;;;;;;;18.00;68.70;;;;;;4993063;28;19993;-73
2023/08/06 03:02:23;;;;;;;;;;;17.90;68.90;;;;;;4994189;28;20370;-72
2023/08/06 03:04:48;;;;;;;;;;;17.90;69.20;;;;;;4992979;28;19957;-73
2023/08/06 03:07:14;;;;;;;;;;;17.90;69.20;;;;;;4976710;28;19926;-73
2023/08/06 03:09:39;;;;;;;;;;;17.80;69.10;;;;;;4993195;28;19918;-73
2023/08/06 03:12:05;;;;;;;;;;;17.80;69.10;;;;;;4990427;28;20425;-74
2023/08/06 03:14:31;;;;;;;;;;;17.70;68.90;;;;;;4993844;28;20385;-73
2023/08/06 03:16:56;;;;;;;;;;;17.70;68.90;;;;;;4993899;28;20297;-74
2023/08/06 03:19:21;;;;;;;;;;;17.70;68.80;;;;;;4976737;28;19973;-73
2023/08/06 03:21:47;;;;;;;;;;;17.60;68.90;;;;;;4994042;28;20387;-73
2023/08/06 03:24:13;;;;;;;;;;;17.50;68.90;;;;;;4993909;28;20289;-73
2023/08/06 03:26:38;;;;;;;;;;;17.50;69.20;;;;;;4994082;28;19914;-73
2023/08/06 03:29:04;;;;;;;;;;;17.50;69.30;;;;;;4993558;28;19922;-73
2023/08/06 03:31:29;;;;;;;;;;;17.50;69.40;;;;;;4993922;28;19968;-72
2023/08/06 03:33:55;;;;;;;;;;;17.40;69.50;;;;;;4993781;28;19921;-73
2023/08/06 03:36:20;;;;;;;;;;;17.40;69.20;;;;;;4993947;28;20009;-74
2023/08/06 03:38:46;;;;;;;;;;;17.30;68.90;;;;;;4993441;28;19968;-73
2023/08/06 03:41:11;;;;;;;;;;;17.30;68.90;;;;;;4993806;28;19913;-74
2023/08/06 03:43:37;;;;;;;;;;;17.30;68.90;;;;;;4975804;28;19918;-73
2023/08/06 03:46:02;;;;;;;;;;;17.20;69.00;;;;;;4993882;28;19914;-74
2023/08/06 03:48:27;;;;;;;;;;;17.20;69.20;;;;;;4993295;28;19968;-73
2023/08/06 03:50:53;;;;;;;;;;;17.20;69.20;;;;;;4993358;28;20338;-73
2023/08/06 03:53:18;;;;;;;;;;;17.20;69.60;;;;;;4989214;28;20984;-72
2023/08/06 03:55:44;;;;;;;;;;;17.20;69.90;;;;;;4991766;28;19969;-74
2023/08/06 03:58:09;;;;;;;;;;;17.20;70.00;;;;;;4990653;28;20329;-73
2023/08/06 04:00:35;;;;;;;;;;;17.20;69.70;;;;;;4992526;28;19914;-73
2023/08/06 04:03:00;;;;;;;;;;;17.20;69.40;;;;;;4993023;28;19917;-73
2023/08/06 04:05:26;;;;;;;;;;;17.10;69.10;;;;;;4993030;28;20221;-72
2023/08/06 04:07:51;;;;;;;;;;;17.10;69.10;;;;;;4993330;28;20255;-72
2023/08/06 04:10:17;;;;;;;;;;;17.00;69.20;;;;;;4992926;28;19918;-72
2023/08/06 04:12:42;;;;;;;;;;;17.00;69.40;;;;;;4992920;28;19921;-72
2023/08/06 04:15:08;;;;;;;;;;;17.00;69.50;;;;;;4993278;28;19914;-73
2023/08/06 04:17:33;;;;;;;;;;;17.00;69.90;;;;;;4992960;28;19928;-73
2023/08/06 04:19:59;;;;;;;;;;;17.00;70.10;;;;;;4992997;28;20358;-74
2023/08/06 04:22:25;;;;;;;;;;;17.00;70.10;;;;;;4993057;28;19918;-71
2023/08/06 04:24:50;;;;;;;;;;;17.00;70.50;;;;;;4975212;28;19920;-70
2023/08/06 04:27:16;;;;;;;;;;;17.10;70.90;;;;;;4992848;28;20320;-70
2023/08/06 04:29:41;;;;;;;;;;;17.30;71.30;;;;;;4992967;28;20000;-73
2023/08/06 04:32:08;;;;;;;;;;;17.30;71.60;;;;;;4992619;28;20344;-73
2023/08/06 04:34:34;;;;;;;;;;;17.40;71.80;;;;;;4991947;28;20414;-73
2023/08/06 04:37:00;;;;;;;;;;;17.50;71.90;;;;;;4992673;28;19924;-74
2023/08/06 04:39:25;;;;;;;;;;;17.70;71.90;;;;;;4992796;28;19910;-74
2023/08/06 04:41:51;;;;;;;;;;;17.70;72.00;;;;;;4974941;28;19917;-74
2023/08/06 04:44:16;;;;;;;;;;;17.80;72.10;;;;;;4992404;28;19986;-73
2023/08/06 04:46:42;;;;;;;;;;;18.00;72.20;;;;;;4992995;28;19960;-74
2023/08/06 04:49:07;;;;;;;;;;;18.10;72.20;;;;;;4992207;28;19926;-74
2023/08/06 04:51:33;;;;;;;;;;;18.30;72.10;;;;;;4992586;28;19925;-73
2023/08/06 04:53:58;;;;;;;;;;;18.30;72.00;;;;;;4992393;28;20019;-73
2023/08/06 04:56:23;;;;;;;;;;;18.40;72.00;;;;;;4992628;28;20020;-74
2023/08/06 04:58:49;;;;;;;;;;;18.50;71.90;;;;;;4992430;28;19921;-74
2023/08/06 05:01:15;;;;;;;;;;;18.60;71.80;;;;;;4992744;28;19913;-73
2023/08/06 05:03:40;;;;;;;;;;;18.70;71.80;;;;;;4990983;28;19918;-74
2023/08/06 05:06:06;;;;;;;;;;;18.70;71.90;;;;;;4992399;28;20000;-74
2023/08/06 05:08:31;;;;;;;;;;;18.80;72.00;;;;;;4992222;28;20373;-74
2023/08/06 05:10:56;;;;;;;;;;;18.90;71.90;;;;;;4974416;28;20381;-73
2023/08/06 05:13:22;;;;;;;;;;;18.90;71.90;;;;;;4992404;28;20333;-73
2023/08/06 05:15:47;;;;;;;;;;;19.00;71.90;;;;;;4992542;28;19959;-73
2023/08/06 05:18:13;;;;;;;;;;;19.10;72.00;;;;;;4992218;28;19965;-73
2023/08/06 05:20:39;;;;;;;;;;;19.10;72.00;;;;;;4992177;28;19968;-74
2023/08/06 05:23:04;;;;;;;;;;;19.20;72.10;;;;;;4992113;28;19918;-74
2023/08/06 05:25:30;;;;;;;;;;;19.30;72.10;;;;;;4974603;28;19914;-74
2023/08/06 05:27:55;;;;;;;;;;;19.40;72.10;;;;;;4992405;28;19949;-74
2023/08/06 05:30:21;;;;;;;;;;;19.40;72.20;;;;;;4974636;28;19921;-74
2023/08/06 05:32:46;;;;;;;;;;;19.50;72.20;;;;;;4992057;28;19924;-74
2023/08/06 05:35:12;;;;;;;;;;;19.60;72.20;;;;;;4974410;28;20389;-74
2023/08/06 05:37:37;;;;;;;;;;;19.70;72.30;;;;;;4991934;28;19925;-74
2023/08/06 05:40:03;;;;;;;;;;;19.80;72.40;;;;;;4992106;28;19910;-71
2023/08/06 05:42:29;;;;;;;;;;;20.00;72.50;;;;;;4974588;28;20293;-72
2023/08/06 05:44:55;;;;;;;;;;;20.20;72.60;;;;;;4992536;28;19910;-72
2023/08/06 05:47:20;;;;;;;;;;;20.30;72.60;;;;;;4995783;28;19917;-71
2023/08/06 05:49:46;;;;;;;;;;;20.50;72.60;;;;;;4995396;28;19918;-72
2023/08/06 05:52:11;;;;;;;;;;;20.60;72.50;;;;;;4995659;28;19924;-72
2023/08/06 05:54:37;;;;;;;;;;;20.80;72.70;;;;;;4995485;28;19918;-72
2023/08/06 05:57:02;;;;;;;;;;;21.00;72.90;;;;;;4995564;28;19918;-72
2023/08/06 05:59:28;;;;;;;;;;;21.40;73.60;;;;;;4995815;28;19910;-72
2023/08/06 06:01:53;;;;;;;;;;;21.70;73.30;;;;;;4996240;28;20368;-72
2023/08/06 06:04:19;;;;;;;;;;;22.00;72.70;;;;;;4995445;28;19918;-72
2023/08/06 06:06:44;;;;;;;;;;;22.10;72.50;;;;;;4995688;28;19914;-72
2023/08/06 06:09:10;;;;;;;;;;;22.10;72.20;;;;;;4995337;28;19968;-72
2023/08/06 06:11:35;;;;;;;;;;;22.20;72.20;;;;;;4995551;28;20365;-72
2023/08/06 06:14:01;;;;;;;;;;;22.30;72.10;;;;;;4995499;28;19996;-73
2023/08/06 06:16:26;;;;;;;;;;;22.30;71.90;;;;;;4995513;28;19936;-72
2023/08/06 06:18:52;;;;;;;;;;;22.40;71.90;;;;;;4995217;28;20433;-73
2023/08/06 06:21:17;;;;;;;;;;;22.30;71.30;;;;;;4995301;28;20269;-73
2023/08/06 06:23:43;;;;;;;;;;;22.30;71.50;;;;;;4995002;28;19993;-71
2023/08/06 06:26:09;;;;;;;;;;;22.40;72.00;;;;;;4992093;28;20053;-72
2023/08/06 06:28:35;;;;;;;;;;;22.60;73.00;;;;;;4984147;28;19914;-71
2023/08/06 06:31:01;;;;;;;;;;;23.10;73.40;;;;;;4989081;28;19918;-71
2023/08/06 06:33:26;;;;;;;;;;;23.70;74.10;;;;;;4995081;28;20354;-72
2023/08/06 06:35:52;;;;;;;;;;;24.30;73.30;;;;;;4977270;28;20012;-72
2023/08/06 06:38:17;;;;;;;;;;;24.70;72.60;;;;;;4994769;28;19918;-72
2023/08/06 06:40:43;;;;;;;;;;;25.00;72.00;;;;;;4994882;28;20301;-73
2023/08/06 06:43:08;;;;;;;;;;;25.20;70.90;;;;;;4977289;28;20040;-74
2023/08/06 06:45:34;;;;;;;;;;;25.40;71.50;;;;;;4994639;28;19914;-73
2023/08/06 06:47:59;;;;;;;;;;;25.80;72.10;;;;;;4994271;28;19954;-74
2023/08/06 06:50:26;;;;;;;;;;;26.30;72.00;;;;;;4994459;28;20391;-74
2023/08/06 06:52:51;;;;;;;;;;;26.80;71.60;;;;;;4980175;28;20352;-73
2023/08/06 06:55:17;;;;;;;;;;;27.00;69.80;;;;;;5013945;28;20009;-74
2023/08/06 06:57:42;;;;;;;;;;;26.90;68.80;;;;;;4979628;28;19959;-73
2023/08/06 07:00:08;;;;;;;;;;;26.80;69.10;;;;;;4995959;28;19925;-73
2023/08/06 07:02:33;;;;;;;;;;;27.00;70.90;;;;;;4995993;28;20361;-74
2023/08/06 07:04:59;;;;;;;;;;;27.40;71.20;;;;;;5013830;28;19918;-74
2023/08/06 07:07:24;;;;;;;;;;;28.00;71.00;;;;;;4993226;28;19929;-74
2023/08/06 07:09:50;;;;;;;;;;;28.50;71.10;;;;;;4995964;28;19960;-75
2023/08/06 07:12:15;;;;;;;;;;;28.80;69.80;;;;;;4996291;28;19956;-74
2023/08/06 07:14:41;;;;;;;;;;;29.20;69.80;;;;;;5013328;28;19917;-75
2023/08/06 07:17:06;;;;;;;;;;;29.50;69.20;;;;;;4999436;28;19914;-75
2023/08/06 07:19:32;;;;;;;;;;;29.40;66.60;;;;;;5011280;28;19910;-75
2023/08/06 07:21:57;;;;;;;;;;;29.20;65.70;;;;;;5013544;28;19913;-75
2023/08/06 07:24:23;;;;;;;;;;;29.10;66.60;;;;;;5013174;28;19988;-75
2023/08/06 07:26:48;;;;;;;;;;;29.10;67.60;;;;;;5001636;28;19918;-75
2023/08/06 07:29:19;;;;;;;;;;;29.40;69.70;;;;;;4976163;28;19925;-74
2023/08/06 07:31:45;;;;;;;;;;;30.10;71.30;;;;;;4976416;28;19921;-75
2023/08/06 07:34:10;;;;;;;;;;;30.80;69.70;;;;;;5007887;28;20370;-75
2023/08/06 07:36:35;;;;;;;;;;;31.30;69.40;;;;;;5002957;28;19917;-75
2023/08/06 07:39:01;;;;;;;;;;;31.90;69.90;;;;;;4975795;28;19910;-74
2023/08/06 07:41:26;;;;;;;;;;;32.40;68.70;;;;;;4975978;28;20340;-74
2023/08/06 07:43:52;;;;;;;;;;;32.60;68.20;;;;;;5003386;28;19964;-74
2023/08/06 07:46:18;;;;;;;;;;;32.90;69.10;;;;;;4989890;28;19926;-74
2023/08/06 07:48:43;;;;;;;;;;;33.10;68.20;;;;;;5004089;28;20369;-74
2023/08/06 07:51:09;;;;;;;;;;;33.10;67.40;;;;;;5012790;28;19925;-74
2023/08/06 07:53:34;;;;;;;;;;;33.00;67.50;;;;;;4995061;28;19920;-74
2023/08/06 07:56:02;;;;;;;;;;;32.70;66.50;;;;;;5009418;28;19929;-74
2023/08/06 07:58:29;;;;;;;;;;;32.50;67.30;;;;;;5000804;28;19971;-73
2023/08/06 08:00:54;;;;;;;;;;;32.50;67.80;;;;;;5012924;28;19928;-74
2023/08/06 08:03:20;;;;;;;;;;;32.50;67.30;;;;;;5012794;28;20350;-73
2023/08/06 08:05:46;;;;;;;;;;;32.70;67.90;;;;;;5008942;28;19918;-73
2023/08/06 08:08:11;;;;;;;;;;;32.80;67.80;;;;;;4985182;28;19910;-73
2023/08/06 08:10:38;;;;;;;;;;;33.00;67.30;;;;;;5012424;28;19961;-73
2023/08/06 08:13:04;;;;;;;;;;;33.10;66.10;;;;;;5012184;28;19910;-73
2023/08/06 08:15:30;;;;;;;;;;;33.20;66.00;;;;;;5012749;28;19924;-73
2023/08/06 08:17:56;;;;;;;;;;;33.30;65.20;;;;;;4973856;28;19910;-73
2023/08/06 08:20:21;;;;;;;;;;;33.20;65.00;;;;;;4975759;28;20013;-72
2023/08/06 08:22:47;;;;;;;;;;;32.90;63.50;;;;;;4978663;28;19916;-72
2023/08/06 08:25:12;;;;;;;;;;;32.60;64.40;;;;;;4994757;28;19921;-72
2023/08/06 08:27:38;;;;;;;;;;;32.20;64.50;;;;;;4995757;28;19910;-72
2023/08/06 08:30:04;;;;;;;;;;;32.00;63.30;;;;;;4994761;28;20036;-72
2023/08/06 08:32:29;;;;;;;;;;;31.70;63.00;;;;;;5012205;28;19957;-72
2023/08/06 08:34:55;;;;;;;;;;;31.40;63.30;;;;;;4994786;28;19967;-73
2023/08/06 08:37:20;;;;;;;;;;;31.20;64.20;;;;;;4996203;28;19998;-72
2023/08/06 08:39:46;;;;;;;;;;;31.10;65.30;;;;;;5011828;28;19914;-72
2023/08/06 08:42:11;;;;;;;;;;;31.00;65.40;;;;;;4994438;28;20288;-70
2023/08/06 08:44:39;;;;;;;;;;;30.80;65.30;;;;;;5003746;28;20273;-71
2023/08/06 08:47:06;;;;;;;;;;;30.70;65.50;;;;;;4988315;28;19920;-71
2023/08/06 08:49:31;;;;;;;;;;;30.60;64.00;;;;;;5009459;28;20405;-72
2023/08/06 08:51:59;;;;;;;;;;;30.40;64.40;;;;;;5012115;28;19952;-72
2023/08/06 08:54:25;;;;;;;;;;;30.30;64.90;;;;;;5011897;28;19913;-71
2023/08/06 08:56:50;;;;;;;;;;;30.20;65.70;;;;;;5000353;28;19972;-71
2023/08/06 08:59:16;;;;;;;;;;;30.20;65.60;;;;;;5007420;28;19914;-71
2023/08/06 09:01:42;;;;;;;;;;;30.10;66.30;;;;;;5012440;28;20009;-71
2023/08/06 09:04:09;;;;;;;;;;;30.00;65.70;;;;;;5011689;28;19996;-72
2023/08/06 09:06:36;;;;;;;;;;;29.80;64.80;;;;;;4997912;28;19929;-72
2023/08/06 09:09:05;;;;;;;;;;;29.70;62.30;;;;;;5005350;28;19933;-75
2023/08/06 09:11:39;;;;;;;;;;;29.40;62.50;;;;;;4994669;28;20008;-75
2023/08/06 09:14:06;;;;;;;;;;;29.40;63.20;;;;;;4994085;28;20300;-75
2023/08/06 09:16:34;;;;;;;;;;;29.40;63.90;;;;;;5002589;28;19922;-75
2023/08/06 09:19:06;;;;;;;;;;;29.60;66.40;;;;;;4974707;28;19956;-74
2023/08/06 09:21:31;;;;;;;;;;;29.80;65.60;;;;;;4996209;28;19914;-75
2023/08/06 09:23:58;;;;;;;;;;;30.20;66.10;;;;;;5009247;28;20343;-75
2023/08/06 09:26:33;;;;;;;;;;;30.50;65.20;;;;;;5008971;28;20333;-75
2023/08/06 09:28:59;;;;;;;;;;;30.70;61.40;;;;;;4991499;28;19952;-75
2023/08/06 09:31:24;;;;;;;;;;;31.00;61.50;;;;;;5016301;28;19917;-75
2023/08/06 09:33:50;;;;;;;;;;;31.30;60.80;;;;;;5015499;28;20253;-75
2023/08/06 09:36:16;;;;;;;;;;;31.40;58.40;;;;;;4991609;28;20001;-73
2023/08/06 09:38:41;;;;;;;;;;;31.50;55.30;;;;;;5005737;28;19913;-75
2023/08/06 09:41:07;;;;;;;;;;;31.50;54.60;;;;;;5015423;28;19919;-74
2023/08/06 09:43:39;;;;;;;;;;;31.60;53.60;;;;;;5015518;28;20300;-74
2023/08/06 09:46:10;;;;;;;;;;;31.70;52.10;;;;;;4976004;28;19925;-74
2023/08/06 09:48:36;;;;;;;;;;;31.70;48.80;;;;;;4997444;28;20397;-74
2023/08/06 09:51:02;;;;;;;;;;;31.60;46.30;;;;;;4995969;28;19922;-74
2023/08/06 09:53:28;;;;;;;;;;;32.00;47.10;;;;;;5004468;28;19917;-75
2023/08/06 09:55:54;;;;;;;;;;;32.50;45.50;;;;;;5013952;28;19967;-73
2023/08/06 09:58:23;;;;;;;;;;;33.20;45.20;;;;;;4974790;28;20016;-75
2023/08/06 10:00:49;;;;;;;;;;;33.60;43.20;;;;;;4993085;28;20006;-75
2023/08/06 10:03:15;;;;;;;;;;;34.10;42.20;;;;;;4995777;28;19922;-74
2023/08/06 10:05:41;;;;;;;;;;;34.50;40.60;;;;;;4995593;28;19960;-75
2023/08/06 10:08:06;;;;;;;;;;;34.80;40.30;;;;;;4996990;28;20221;-75
2023/08/06 10:10:32;;;;;;;;;;;35.10;37.30;;;;;;5015109;28;19922;-74
2023/08/06 10:12:58;;;;;;;;;;;35.20;36.80;;;;;;5014946;28;19921;-75
2023/08/06 10:15:26;;;;;;;;;;;35.50;37.70;;;;;;4996801;28;19971;-76
2023/08/06 10:17:53;;;;;;;;;;;35.80;35.80;;;;;;4998294;28;20331;-74
2023/08/06 10:20:21;;;;;;;;;;;35.90;33.90;;;;;;5001647;28;19918;-75
2023/08/06 10:22:59;;;;;;;;;;;36.00;34.60;;;;;;4980660;28;20399;-76
2023/08/06 10:25:24;;;;;;;;;;;36.20;33.70;;;;;;4996922;28;20308;-75
2023/08/06 10:27:49;;;;;;;;;;;36.10;33.40;;;;;;4998159;28;20307;-75
2023/08/06 10:30:23;;;;;;;;;;;36.00;33.60;;;;;;5014586;28;19928;-75
2023/08/06 10:32:52;;;;;;;;;;;36.00;32.70;;;;;;4994054;28;19910;-74
2023/08/06 10:35:36;;;;;;;;;;;36.30;33.60;;;;;;4994923;28;20342;-74
2023/08/06 10:38:15;;;;;;;;;;;36.70;33.20;;;;;;4980650;28;19917;-75
2023/08/06 10:40:41;;;;;;;;;;;37.10;32.20;;;;;;5014559;28;19918;-75
2023/08/06 10:43:08;;;;;;;;;;;37.10;31.40;;;;;;5014060;28;20365;-73
2023/08/06 10:45:35;;;;;;;;;;;36.80;30.60;;;;;;4998453;28;19921;-74
2023/08/06 10:48:00;;;;;;;;;;;36.30;30.80;;;;;;4996403;28;20274;-74
2023/08/06 10:50:26;;;;;;;;;;;35.90;31.10;;;;;;5014294;28;20023;-74
2023/08/06 10:52:52;;;;;;;;;;;35.90;32.00;;;;;;5014016;28;19917;-75
2023/08/06 10:55:24;;;;;;;;;;;36.10;31.40;;;;;;5013865;28;20004;-76
2023/08/06 10:57:50;;;;;;;;;;;36.30;30.60;;;;;;4993511;28;19910;-76
2023/08/06 11:00:16;;;;;;;;;;;36.70;31.10;;;;;;5014019;28;20221;-75
2023/08/06 11:02:41;;;;;;;;;;;37.20;30.80;;;;;;5013770;28;19948;-74
2023/08/06 11:05:08;;;;;;;;;;;37.30;29.40;;;;;;5014521;28;19952;-74
2023/08/06 11:07:33;;;;;;;;;;;37.10;29.00;;;;;;4991925;28;19914;-73
2023/08/06 11:10:17;;;;;;;;;;;36.50;28.00;;;;;;5014022;28;19932;-74
2023/08/06 11:12:43;;;;;;;;;;;36.00;28.50;;;;;;5013911;28;19920;-75
2023/08/06 11:15:08;;;;;;;;;;;35.50;29.50;;;;;;5014046;28;20012;-76
2023/08/06 11:17:34;;;;;;;;;;;35.30;30.10;;;;;;4995780;28;19914;-75
2023/08/06 11:20:00;;;;;;;;;;;35.20;30.20;;;;;;5014145;28;20909;-76
2023/08/06 11:22:26;;;;;;;;;;;35.10;30.70;;;;;;5013632;28;19960;-73
2023/08/06 11:24:52;;;;;;;;;;;35.20;31.10;;;;;;5013863;28;19971;-75
2023/08/06 11:27:18;;;;;;;;;;;35.50;30.90;;;;;;4978632;28;19978;-74
2023/08/06 11:29:44;;;;;;;;;;;35.60;30.70;;;;;;5013040;28;19921;-75
2023/08/06 11:32:09;;;;;;;;;;;35.70;30.40;;;;;;4996214;28;20364;-74
2023/08/06 11:34:35;;;;;;;;;;;35.80;30.80;;;;;;4995885;28;19916;-75
2023/08/06 11:37:03;;;;;;;;;;;36.00;30.50;;;;;;4998546;28;19932;-73
2023/08/06 11:39:28;;;;;;;;;;;36.00;30.50;;;;;;5010742;28;19913;-74
2023/08/06 11:41:54;;;;;;;;;;;35.90;29.60;;;;;;4977726;28;19925;-73
2023/08/06 11:44:19;;;;;;;;;;;35.50;29.10;;;;;;4992891;28;20389;-74
2023/08/06 11:46:55;;;;;;;;;;;35.00;29.60;;;;;;4987291;28;20005;-74
2023/08/06 11:49:46;;;;;;;;;;;34.50;30.00;;;;;;4992205;28;19917;-74
2023/08/06 11:52:11;;;;;;;;;;;34.10;30.60;;;;;;4990608;28;19918;-74
2023/08/06 11:54:37;;;;;;;;;;;33.60;31.10;;;;;;4992277;28;19916;-74
2023/08/06 11:57:03;;;;;;;;;;;33.20;31.60;;;;;;4986625;28;19909;-74
2023/08/06 11:59:28;;;;;;;;;;;32.80;31.40;;;;;;4991494;28;19921;-74
2023/08/06 12:01:54;;;;;;;;;;;32.30;32.20;;;;;;4992449;28;20360;-73
2023/08/06 12:04:19;;;;;;;;;;;32.00;32.90;;;;;;4994985;28;19910;-73
2023/08/06 12:06:45;;;;;;;;;;;31.80;33.50;;;;;;4965944;28;19932;-73
2023/08/06 12:09:10;;;;;;;;;;;31.50;33.40;;;;;;4991330;28;19914;-74
2023/08/06 12:11:36;;;;;;;;;;;31.30;33.60;;;;;;4992099;28;19918;-74
2023/08/06 12:14:01;;;;;;;;;;;31.10;33.90;;;;;;4993237;28;20008;-74
2023/08/06 12:16:27;;;;;;;;;;;31.00;34.40;;;;;;4985569;28;19999;-75
2023/08/06 12:18:53;;;;;;;;;;;31.00;34.90;;;;;;4992049;28;20440;-74
2023/08/06 12:21:18;;;;;;;;;;;30.90;35.10;;;;;;4974210;28;19960;-74
2023/08/06 12:23:44;;;;;;;;;;;30.90;35.40;;;;;;5003181;28;20396;-75
2023/08/06 12:26:09;;;;;;;;;;;31.10;35.70;;;;;;5004512;28;20263;-75
2023/08/06 12:28:34;;;;;;;;;;;31.20;35.40;;;;;;4987844;28;19921;-74
2023/08/06 12:31:00;;;;;;;;;;;31.30;35.40;;;;;;4990900;28;20270;-75
2023/08/06 12:33:25;;;;;;;;;;;31.30;35.50;;;;;;4990130;28;19984;-74
2023/08/06 12:35:54;;;;;;;;;;;31.30;35.10;;;;;;4990531;28;19925;-75
2023/08/06 12:38:19;;;;;;;;;;;31.30;35.00;;;;;;4984580;28;19964;-70
2023/08/06 12:40:45;;;;;;;;;;;31.30;35.00;;;;;;4988048;28;20294;-69
2023/08/06 12:43:10;;;;;;;;;;;31.20;34.80;;;;;;4975550;28;19921;-69
2023/08/06 12:45:36;;;;;;;;;;;31.20;35.20;;;;;;4992422;28;19914;-69
2023/08/06 12:48:02;;;;;;;;;;;31.30;35.40;;;;;;4991114;28;19960;-69
2023/08/06 12:50:27;;;;;;;;;;;31.50;34.90;;;;;;4997295;28;19928;-68
2023/08/06 12:52:53;;;;;;;;;;;31.50;34.60;;;;;;4996682;28;20321;-68
2023/08/06 12:55:18;;;;;;;;;;;31.40;34.10;;;;;;4974017;28;19918;-69
2023/08/06 12:57:44;;;;;;;;;;;31.50;34.40;;;;;;4988498;28;19924;-68
2023/08/06 13:00:09;;;;;;;;;;;31.70;35.10;;;;;;5002015;28;19972;-69
2023/08/06 13:02:35;;;;;;;;;;;32.10;34.70;;;;;;4993695;28;19910;-70
2023/08/06 13:05:05;;;;;;;;;;;32.30;33.70;;;;;;5004726;28;19925;-69
2023/08/06 13:07:30;;;;;;;;;;;32.50;33.90;;;;;;4987117;28;19921;-68
2023/08/06 13:09:56;;;;;;;;;;;32.60;33.30;;;;;;4994317;28;19922;-68
2023/08/06 13:12:22;;;;;;;;;;;32.70;33.00;;;;;;4991023;28;19945;-69
2023/08/06 13:14:48;;;;;;;;;;;32.60;32.40;;;;;;4990085;28;19916;-68
2023/08/06 13:17:14;;;;;;;;;;;32.60;32.00;;;;;;4985832;28;19914;-69
2023/08/06 13:19:39;;;;;;;;;;;32.60;32.00;;;;;;5009971;28;19909;-69
2023/08/06 13:22:08;;;;;;;;;;;32.70;31.50;;;;;;4998621;28;19918;-68
2023/08/06 13:24:34;;;;;;;;;;;32.70;31.40;;;;;;4999484;28;19936;-69
2023/08/06 13:27:00;;;;;;;;;;;32.90;31.70;;;;;;4984255;28;19921;-69
2023/08/06 13:29:26;;;;;;;;;;;33.30;31.70;;;;;;4973638;28;19917;-69
2023/08/06 13:31:51;;;;;;;;;;;33.50;31.50;;;;;;4992173;28;20021;-68
2023/08/06 13:34:17;;;;;;;;;;;33.60;31.70;;;;;;5005094;28;20015;-70
2023/08/06 13:36:42;;;;;;;;;;;33.60;31.70;;;;;;4979061;28;20353;-69
2023/08/06 13:39:08;;;;;;;;;;;33.30;31.40;;;;;;4992060;28;20341;-70
2023/08/06 13:41:33;;;;;;;;;;;32.90;31.90;;;;;;4990186;28;20004;-70
2023/08/06 13:43:59;;;;;;;;;;;32.30;35.20;;;;;;4993152;28;19917;-70
2023/08/06 13:46:24;;;;;;;;;;;31.20;40.30;;;;;;4987093;28;20020;-67
2023/08/06 13:48:52;;;;;;;;;;;29.90;47.40;;;;;;4987977;28;20301;-71
2023/08/06 13:51:18;;;;;;;;;;;28.80;52.60;;;;;;4989562;28;19928;-70
2023/08/06 13:53:44;;;;;;;;;;;27.90;56.60;;;;;;5000980;28;20361;-71
2023/08/06 13:56:10;;;;;;;;;;;27.30;58.00;;;;;;4996869;28;19925;-69
2023/08/06 13:58:35;;;;;;;;;;;26.80;59.80;;;;;;4987783;28;19910;-69
2023/08/06 14:01:01;;;;;;;;;;;26.20;60.40;;;;;;4990319;28;19929;-69
2023/08/06 14:03:26;;;;;;;;;;;25.80;61.70;;;;;;5000165;28;19913;-70
2023/08/06 14:05:55;;;;;;;;;;;25.30;62.10;;;;;;5011259;28;19913;-70
2023/08/06 14:08:20;;;;;;;;;;;24.80;62.90;;;;;;4989264;28;19913;-70
2023/08/06 14:10:46;;;;;;;;;;;24.30;63.20;;;;;;4995582;28;20289;-71